createdAt,value
2022-12-04T00:17:05.525Z,0.4
2022-12-04T00:27:07.594Z,0.4
2022-12-04T00:37:09.768Z,0.4
2022-12-04T00:47:11.686Z,0.4
2022-12-04T00:57:13.576Z,0.4
2022-12-04T01:07:15.380Z,0.5
2022-12-04T01:17:17.814Z,0.4
2022-12-04T01:27:20.192Z,0.4
2022-12-04T01:37:22.160Z,0.4
2022-12-04T01:47:24.547Z,0.4
2022-12-04T01:57:27.069Z,0.5
2022-12-04T02:07:28.804Z,0.5
2022-12-04T02:17:30.762Z,0.5
2022-12-04T02:37:35.555Z,0.5
2022-12-04T02:47:37.462Z,0.5
2022-12-04T03:07:42.394Z,0.5
2022-12-04T03:17:44.832Z,0.5
2022-12-04T03:27:47.368Z,0.5
2022-12-04T03:37:49.979Z,0.5
2022-12-04T03:47:52.631Z,0.5
2022-12-04T03:57:54.821Z,0.5
2022-12-04T04:07:57.128Z,0.6
2022-12-04T04:17:59.768Z,0.6
2022-12-04T04:28:01.715Z,0.6
2022-12-04T04:38:04.015Z,0.6
2022-12-04T04:48:06.221Z,0.6
2022-12-04T04:58:08.521Z,0.6
2022-12-04T05:18:13.042Z,0.6
2022-12-04T05:28:14.846Z,0.5
2022-12-04T05:38:16.495Z,0.5
2022-12-04T05:58:21.158Z,0.5
2022-12-04T06:08:23.160Z,0.5
2022-12-04T06:18:25.401Z,0.6
2022-12-04T06:38:30.353Z,0.6
2022-12-04T07:08:36.265Z,0.8
2022-12-04T07:18:38.830Z,0.8
2022-12-04T07:38:43.713Z,0.8
2022-12-04T07:48:45.532Z,0.9
2022-12-04T07:58:47.968Z,0.9
2022-12-04T08:01:42.505Z,0.9
2022-12-04T08:09:03.620Z,1
2022-12-04T08:19:02.400Z,1
2022-12-04T08:29:04.302Z,1
2022-12-04T08:59:11.683Z,1.2
2022-12-04T09:19:16.024Z,1.3
2022-12-04T09:29:18.514Z,1.3
2022-12-04T09:39:20.751Z,1.4
2022-12-04T09:59:24.576Z,1.5
2022-12-04T10:09:26.702Z,1.6
2022-12-04T10:19:28.659Z,1.6
2022-12-04T10:39:33.133Z,1.6
2022-12-04T10:59:37.337Z,1.6
2022-12-04T11:09:39.416Z,1.7
2022-12-04T11:19:41.540Z,1.7
2022-12-04T11:39:44.993Z,1.8
2022-12-04T11:49:46.822Z,1.9
2022-12-04T12:39:57.907Z,2.1
2022-12-04T12:49:59.388Z,2.1
2022-12-04T13:00:01.773Z,2.1
2022-12-04T13:20:10.035Z,2.2
2022-12-04T14:00:14.837Z,2.2
2022-12-04T14:10:17.246Z,2.2
2022-12-04T14:20:19.738Z,2.2
2022-12-04T14:30:22.246Z,2.1
2022-12-04T14:40:24.539Z,2.1
2022-12-04T15:00:29.528Z,2
2022-12-04T15:10:31.672Z,2
2022-12-04T15:20:38.766Z,2
2022-12-04T15:40:37.816Z,2
2022-12-04T15:50:39.690Z,2
2022-12-04T16:00:41.950Z,2
2022-12-04T16:10:44.264Z,2
2022-12-04T16:20:46.596Z,2
2022-12-04T16:30:49.078Z,1.9
2022-12-04T16:40:51.627Z,1.8
2022-12-04T16:50:53.816Z,1.7
2022-12-04T17:00:55.590Z,1.6
2022-12-04T17:10:57.686Z,1.6
2022-12-04T17:20:59.600Z,1.5
2022-12-04T17:31:01.455Z,1.5
2022-12-04T17:41:03.815Z,1.5
2022-12-04T17:51:05.798Z,1.5
2022-12-04T18:01:08.215Z,1.5
2022-12-04T18:11:10.200Z,1.4
2022-12-04T18:21:12.405Z,1.4
2022-12-04T18:31:14.166Z,1.4
2022-12-04T18:41:16.272Z,1.4
2022-12-04T18:51:18.463Z,1.4
2022-12-04T19:01:21.160Z,1.4
2022-12-04T19:11:23.267Z,1.4
2022-12-04T19:21:25.407Z,1.4
2022-12-04T19:31:27.301Z,1.5
2022-12-04T19:51:31.426Z,1.6
2022-12-04T20:01:33.477Z,1.6
2022-12-04T20:11:35.978Z,1.6
2022-12-04T20:21:37.757Z,1.6
2022-12-04T20:31:40.090Z,1.7
2022-12-04T20:41:42.036Z,1.7
2022-12-04T20:51:44.706Z,1.7
2022-12-04T21:11:49.560Z,1.7
2022-12-04T21:21:51.541Z,1.7
2022-12-04T21:31:53.861Z,1.7
2022-12-04T21:41:56.106Z,1.8
2022-12-04T21:51:58.830Z,1.8
2022-12-04T22:12:10.323Z,1.8
2022-12-04T22:22:04.700Z,1.9
2022-12-04T22:32:06.816Z,1.9
2022-12-04T22:52:10.960Z,2
2022-12-04T23:02:13.373Z,2
2022-12-04T23:12:15.648Z,2
2022-12-04T23:22:17.478Z,2
2022-12-04T23:32:19.348Z,2.1
2022-12-04T23:42:21.520Z,2.1
2022-12-04T23:52:23.315Z,2.1
